sensor_id;sensor_type;location;lat;lon;timestamp;P1;durP1;ratioP1;P2;durP2;ratioP2
37409;SDS011;23275;48.914;12.566;2023-12-20T00:02:13;14.00;;;9.15;;
37409;SDS011;23275;48.914;12.566;2023-12-20T00:04:39;13.75;;;8.85;;
37409;SDS011;23275;48.914;12.566;2023-12-20T00:07:04;14.75;;;9.55;;
37409;SDS011;23275;48.914;12.566;2023-12-20T00:09:30;15.75;;;9.30;;
37409;SDS011;23275;48.914;12.566;2023-12-20T00:11:55;15.70;;;9.38;;
37409;SDS011;23275;48.914;12.566;2023-12-20T00:14:21;17.05;;;9.45;;
37409;SDS011;23275;48.914;12.566;2023-12-20T00:16:47;18.02;;;9.40;;
37409;SDS011;23275;48.914;12.566;2023-12-20T00:19:13;17.50;;;9.57;;
37409;SDS011;23275;48.914;12.566;2023-12-20T00:21:38;15.70;;;9.68;;
37409;SDS011;23275;48.914;12.566;2023-12-20T00:24:04;17.08;;;9.40;;
37409;SDS011;23275;48.914;12.566;2023-12-20T00:26:30;16.13;;;9.13;;
37409;SDS011;23275;48.914;12.566;2023-12-20T00:28:55;15.07;;;9.20;;
37409;SDS011;23275;48.914;12.566;2023-12-20T00:31:21;15.65;;;9.80;;
37409;SDS011;23275;48.914;12.566;2023-12-20T00:33:47;14.95;;;10.98;;
37409;SDS011;23275;48.914;12.566;2023-12-20T00:36:12;17.67;;;10.02;;
37409;SDS011;23275;48.914;12.566;2023-12-20T00:38:38;15.73;;;10.25;;
37409;SDS011;23275;48.914;12.566;2023-12-20T00:41:03;16.95;;;9.90;;
37409;SDS011;23275;48.914;12.566;2023-12-20T00:43:29;15.85;;;8.80;;
37409;SDS011;23275;48.914;12.566;2023-12-20T00:45:54;15.80;;;9.93;;
37409;SDS011;23275;48.914;12.566;2023-12-20T00:48:20;16.13;;;9.55;;
37409;SDS011;23275;48.914;12.566;2023-12-20T00:50:46;16.20;;;10.30;;
37409;SDS011;23275;48.914;12.566;2023-12-20T00:53:11;16.70;;;10.38;;
37409;SDS011;23275;48.914;12.566;2023-12-20T00:55:37;13.55;;;9.40;;
37409;SDS011;23275;48.914;12.566;2023-12-20T00:58:03;16.30;;;9.95;;
37409;SDS011;23275;48.914;12.566;2023-12-20T01:00:28;16.92;;;9.70;;
37409;SDS011;23275;48.914;12.566;2023-12-20T01:02:54;14.85;;;9.07;;
37409;SDS011;23275;48.914;12.566;2023-12-20T01:05:19;16.10;;;9.65;;
37409;SDS011;23275;48.914;12.566;2023-12-20T01:07:48;16.20;;;9.02;;
37409;SDS011;23275;48.914;12.566;2023-12-20T01:10:14;16.40;;;9.13;;
37409;SDS011;23275;48.914;12.566;2023-12-20T01:12:40;15.07;;;9.20;;
37409;SDS011;23275;48.914;12.566;2023-12-20T01:15:05;12.98;;;8.95;;
37409;SDS011;23275;48.914;12.566;2023-12-20T01:17:31;17.17;;;9.63;;
37409;SDS011;23275;48.914;12.566;2023-12-20T01:19:57;18.58;;;9.43;;
37409;SDS011;23275;48.914;12.566;2023-12-20T01:22:23;14.07;;;8.80;;
37409;SDS011;23275;48.914;12.566;2023-12-20T01:24:48;17.90;;;9.00;;
37409;SDS011;23275;48.914;12.566;2023-12-20T01:27:14;19.48;;;9.57;;
37409;SDS011;23275;48.914;12.566;2023-12-20T01:29:40;14.70;;;8.70;;
37409;SDS011;23275;48.914;12.566;2023-12-20T01:32:05;16.08;;;10.40;;
37409;SDS011;23275;48.914;12.566;2023-12-20T01:34:31;14.65;;;9.55;;
37409;SDS011;23275;48.914;12.566;2023-12-20T01:36:57;17.63;;;9.20;;
37409;SDS011;23275;48.914;12.566;2023-12-20T01:39:22;13.57;;;8.95;;
37409;SDS011;23275;48.914;12.566;2023-12-20T01:41:48;15.00;;;8.80;;
37409;SDS011;23275;48.914;12.566;2023-12-20T01:44:13;15.43;;;8.68;;
37409;SDS011;23275;48.914;12.566;2023-12-20T01:46:39;16.15;;;8.95;;
37409;SDS011;23275;48.914;12.566;2023-12-20T01:49:06;16.23;;;9.88;;
37409;SDS011;23275;48.914;12.566;2023-12-20T01:51:33;18.30;;;10.02;;
37409;SDS011;23275;48.914;12.566;2023-12-20T01:53:58;14.90;;;9.50;;
37409;SDS011;23275;48.914;12.566;2023-12-20T01:56:25;15.85;;;8.82;;
37409;SDS011;23275;48.914;12.566;2023-12-20T01:58:53;14.18;;;8.55;;
37409;SDS011;23275;48.914;12.566;2023-12-20T02:01:21;14.82;;;9.60;;
37409;SDS011;23275;48.914;12.566;2023-12-20T02:03:46;17.00;;;10.13;;
37409;SDS011;23275;48.914;12.566;2023-12-20T02:06:12;19.65;;;10.20;;
37409;SDS011;23275;48.914;12.566;2023-12-20T02:08:38;15.98;;;10.07;;
37409;SDS011;23275;48.914;12.566;2023-12-20T02:11:04;14.20;;;9.18;;
37409;SDS011;23275;48.914;12.566;2023-12-20T02:13:30;17.17;;;9.90;;
37409;SDS011;23275;48.914;12.566;2023-12-20T02:15:56;15.13;;;9.05;;
37409;SDS011;23275;48.914;12.566;2023-12-20T02:18:22;16.38;;;9.30;;
37409;SDS011;23275;48.914;12.566;2023-12-20T02:20:47;17.73;;;9.82;;
37409;SDS011;23275;48.914;12.566;2023-12-20T02:23:13;17.42;;;9.88;;
37409;SDS011;23275;48.914;12.566;2023-12-20T02:25:39;15.50;;;9.43;;
37409;SDS011;23275;48.914;12.566;2023-12-20T02:28:11;16.38;;;9.93;;
37409;SDS011;23275;48.914;12.566;2023-12-20T02:30:37;17.17;;;10.27;;
37409;SDS011;23275;48.914;12.566;2023-12-20T02:33:03;16.55;;;9.02;;
37409;SDS011;23275;48.914;12.566;2023-12-20T02:35:32;19.40;;;9.38;;
37409;SDS011;23275;48.914;12.566;2023-12-20T02:37:58;15.75;;;9.98;;
37409;SDS011;23275;48.914;12.566;2023-12-20T02:40:23;19.02;;;10.77;;
37409;SDS011;23275;48.914;12.566;2023-12-20T02:42:49;17.65;;;10.02;;
37409;SDS011;23275;48.914;12.566;2023-12-20T02:45:14;18.15;;;10.95;;
37409;SDS011;23275;48.914;12.566;2023-12-20T02:47:40;16.50;;;10.75;;
37409;SDS011;23275;48.914;12.566;2023-12-20T02:50:05;14.32;;;9.13;;
37409;SDS011;23275;48.914;12.566;2023-12-20T02:52:31;17.80;;;10.27;;
37409;SDS011;23275;48.914;12.566;2023-12-20T02:54:57;18.20;;;10.27;;
37409;SDS011;23275;48.914;12.566;2023-12-20T02:57:22;18.40;;;10.68;;
37409;SDS011;23275;48.914;12.566;2023-12-20T02:59:48;20.25;;;10.85;;
37409;SDS011;23275;48.914;12.566;2023-12-20T03:02:13;17.25;;;10.23;;
37409;SDS011;23275;48.914;12.566;2023-12-20T03:04:39;16.75;;;10.02;;
37409;SDS011;23275;48.914;12.566;2023-12-20T03:07:04;19.15;;;10.70;;
37409;SDS011;23275;48.914;12.566;2023-12-20T03:09:30;13.55;;;9.02;;
37409;SDS011;23275;48.914;12.566;2023-12-20T03:11:55;14.27;;;9.75;;
37409;SDS011;23275;48.914;12.566;2023-12-20T03:14:21;15.85;;;9.63;;
37409;SDS011;23275;48.914;12.566;2023-12-20T03:16:48;13.93;;;10.15;;
37409;SDS011;23275;48.914;12.566;2023-12-20T03:19:15;17.40;;;10.63;;
37409;SDS011;23275;48.914;12.566;2023-12-20T03:21:41;15.32;;;9.95;;
37409;SDS011;23275;48.914;12.566;2023-12-20T03:24:06;17.02;;;10.15;;
37409;SDS011;23275;48.914;12.566;2023-12-20T03:26:32;18.92;;;10.38;;
37409;SDS011;23275;48.914;12.566;2023-12-20T03:28:57;15.52;;;9.82;;
37409;SDS011;23275;48.914;12.566;2023-12-20T03:31:23;16.90;;;10.13;;
37409;SDS011;23275;48.914;12.566;2023-12-20T03:33:48;16.42;;;9.93;;
37409;SDS011;23275;48.914;12.566;2023-12-20T03:36:15;18.88;;;10.10;;
37409;SDS011;23275;48.914;12.566;2023-12-20T03:38:41;17.67;;;9.80;;
37409;SDS011;23275;48.914;12.566;2023-12-20T03:41:07;14.90;;;10.00;;
37409;SDS011;23275;48.914;12.566;2023-12-20T03:43:32;14.35;;;9.43;;
37409;SDS011;23275;48.914;12.566;2023-12-20T03:45:58;16.60;;;9.63;;
37409;SDS011;23275;48.914;12.566;2023-12-20T03:48:25;14.65;;;9.85;;
37409;SDS011;23275;48.914;12.566;2023-12-20T03:50:50;17.08;;;10.43;;
37409;SDS011;23275;48.914;12.566;2023-12-20T03:53:16;15.05;;;9.52;;
37409;SDS011;23275;48.914;12.566;2023-12-20T03:55:41;17.55;;;10.00;;
37409;SDS011;23275;48.914;12.566;2023-12-20T03:58:07;14.32;;;9.07;;
37409;SDS011;23275;48.914;12.566;2023-12-20T04:00:32;15.40;;;9.55;;
37409;SDS011;23275;48.914;12.566;2023-12-20T04:02:58;14.05;;;8.98;;
37409;SDS011;23275;48.914;12.566;2023-12-20T04:05:23;15.05;;;9.07;;
37409;SDS011;23275;48.914;12.566;2023-12-20T04:07:49;14.25;;;9.60;;
37409;SDS011;23275;48.914;12.566;2023-12-20T04:10:15;19.17;;;9.27;;
37409;SDS011;23275;48.914;12.566;2023-12-20T04:12:41;17.13;;;9.70;;
37409;SDS011;23275;48.914;12.566;2023-12-20T04:15:06;14.68;;;9.20;;
37409;SDS011;23275;48.914;12.566;2023-12-20T04:17:34;15.73;;;9.98;;
37409;SDS011;23275;48.914;12.566;2023-12-20T04:20:01;16.58;;;10.13;;
37409;SDS011;23275;48.914;12.566;2023-12-20T04:22:27;15.32;;;9.30;;
37409;SDS011;23275;48.914;12.566;2023-12-20T04:24:53;16.25;;;8.45;;
37409;SDS011;23275;48.914;12.566;2023-12-20T04:27:18;15.52;;;9.35;;
37409;SDS011;23275;48.914;12.566;2023-12-20T04:29:44;12.90;;;8.60;;
37409;SDS011;23275;48.914;12.566;2023-12-20T04:32:09;15.57;;;9.02;;
37409;SDS011;23275;48.914;12.566;2023-12-20T04:34:35;14.25;;;9.80;;
37409;SDS011;23275;48.914;12.566;2023-12-20T04:37:01;14.70;;;9.10;;
37409;SDS011;23275;48.914;12.566;2023-12-20T04:39:26;14.15;;;8.70;;
37409;SDS011;23275;48.914;12.566;2023-12-20T04:41:52;13.80;;;8.88;;
37409;SDS011;23275;48.914;12.566;2023-12-20T04:44:18;15.40;;;9.35;;
37409;SDS011;23275;48.914;12.566;2023-12-20T04:46:43;14.73;;;9.63;;
37409;SDS011;23275;48.914;12.566;2023-12-20T04:49:09;13.75;;;8.48;;
37409;SDS011;23275;48.914;12.566;2023-12-20T04:51:34;14.85;;;9.20;;
37409;SDS011;23275;48.914;12.566;2023-12-20T04:54:00;15.93;;;10.15;;
37409;SDS011;23275;48.914;12.566;2023-12-20T04:56:26;17.15;;;9.52;;
37409;SDS011;23275;48.914;12.566;2023-12-20T04:58:52;17.17;;;9.85;;
37409;SDS011;23275;48.914;12.566;2023-12-20T05:01:18;15.90;;;9.60;;
37409;SDS011;23275;48.914;12.566;2023-12-20T05:03:43;15.98;;;10.20;;
37409;SDS011;23275;48.914;12.566;2023-12-20T05:06:09;17.70;;;10.23;;
37409;SDS011;23275;48.914;12.566;2023-12-20T05:08:35;17.15;;;9.68;;
37409;SDS011;23275;48.914;12.566;2023-12-20T05:11:01;16.58;;;10.57;;
37409;SDS011;23275;48.914;12.566;2023-12-20T05:13:26;20.40;;;11.20;;
37409;SDS011;23275;48.914;12.566;2023-12-20T05:15:52;18.63;;;10.88;;
37409;SDS011;23275;48.914;12.566;2023-12-20T05:18:18;17.27;;;10.98;;
37409;SDS011;23275;48.914;12.566;2023-12-20T05:20:43;14.57;;;10.02;;
37409;SDS011;23275;48.914;12.566;2023-12-20T05:23:09;17.23;;;10.32;;
37409;SDS011;23275;48.914;12.566;2023-12-20T05:25:34;17.77;;;10.30;;
37409;SDS011;23275;48.914;12.566;2023-12-20T05:28:00;16.42;;;10.40;;
37409;SDS011;23275;48.914;12.566;2023-12-20T05:30:26;16.08;;;10.07;;
37409;SDS011;23275;48.914;12.566;2023-12-20T05:32:51;15.30;;;10.07;;
37409;SDS011;23275;48.914;12.566;2023-12-20T05:35:17;17.50;;;9.70;;
37409;SDS011;23275;48.914;12.566;2023-12-20T05:37:42;14.35;;;8.80;;
37409;SDS011;23275;48.914;12.566;2023-12-20T05:40:08;14.77;;;9.73;;
37409;SDS011;23275;48.914;12.566;2023-12-20T05:42:37;17.10;;;9.52;;
37409;SDS011;23275;48.914;12.566;2023-12-20T05:45:03;12.77;;;8.52;;
37409;SDS011;23275;48.914;12.566;2023-12-20T05:47:30;14.25;;;9.15;;
37409;SDS011;23275;48.914;12.566;2023-12-20T05:49:56;14.68;;;9.05;;
37409;SDS011;23275;48.914;12.566;2023-12-20T05:52:21;17.95;;;9.43;;
37409;SDS011;23275;48.914;12.566;2023-12-20T05:54:47;15.05;;;9.20;;
37409;SDS011;23275;48.914;12.566;2023-12-20T05:57:12;14.77;;;8.52;;
37409;SDS011;23275;48.914;12.566;2023-12-20T05:59:38;13.55;;;7.45;;
37409;SDS011;23275;48.914;12.566;2023-12-20T06:02:04;13.30;;;7.53;;
37409;SDS011;23275;48.914;12.566;2023-12-20T06:04:30;10.45;;;5.97;;
37409;SDS011;23275;48.914;12.566;2023-12-20T06:06:56;11.18;;;7.07;;
37409;SDS011;23275;48.914;12.566;2023-12-20T06:09:21;12.35;;;6.55;;
37409;SDS011;23275;48.914;12.566;2023-12-20T06:11:47;9.10;;;6.30;;
37409;SDS011;23275;48.914;12.566;2023-12-20T06:14:13;8.90;;;5.13;;
37409;SDS011;23275;48.914;12.566;2023-12-20T06:16:38;9.70;;;5.00;;
37409;SDS011;23275;48.914;12.566;2023-12-20T06:19:04;5.90;;;3.83;;
37409;SDS011;23275;48.914;12.566;2023-12-20T06:21:29;6.82;;;4.00;;
37409;SDS011;23275;48.914;12.566;2023-12-20T06:23:55;8.18;;;4.25;;
37409;SDS011;23275;48.914;12.566;2023-12-20T06:26:20;7.22;;;4.03;;
37409;SDS011;23275;48.914;12.566;2023-12-20T06:28:46;7.32;;;4.20;;
37409;SDS011;23275;48.914;12.566;2023-12-20T06:31:12;8.25;;;4.10;;
37409;SDS011;23275;48.914;12.566;2023-12-20T06:33:37;8.18;;;4.22;;
37409;SDS011;23275;48.914;12.566;2023-12-20T06:36:06;7.60;;;4.22;;
37409;SDS011;23275;48.914;12.566;2023-12-20T06:38:31;9.38;;;4.50;;
37409;SDS011;23275;48.914;12.566;2023-12-20T06:40:57;9.60;;;4.72;;
37409;SDS011;23275;48.914;12.566;2023-12-20T06:43:23;8.07;;;4.03;;
37409;SDS011;23275;48.914;12.566;2023-12-20T06:45:49;7.25;;;4.57;;
37409;SDS011;23275;48.914;12.566;2023-12-20T06:48:15;8.75;;;5.63;;
37409;SDS011;23275;48.914;12.566;2023-12-20T06:50:41;8.80;;;4.72;;
37409;SDS011;23275;48.914;12.566;2023-12-20T06:53:07;7.20;;;4.60;;
37409;SDS011;23275;48.914;12.566;2023-12-20T06:55:33;6.57;;;4.55;;
37409;SDS011;23275;48.914;12.566;2023-12-20T06:58:00;7.90;;;5.00;;
37409;SDS011;23275;48.914;12.566;2023-12-20T07:00:27;8.57;;;4.80;;
37409;SDS011;23275;48.914;12.566;2023-12-20T07:02:52;7.43;;;4.38;;
37409;SDS011;23275;48.914;12.566;2023-12-20T07:05:18;7.82;;;4.57;;
37409;SDS011;23275;48.914;12.566;2023-12-20T07:07:45;9.88;;;4.90;;
37409;SDS011;23275;48.914;12.566;2023-12-20T07:10:11;8.23;;;5.30;;
37409;SDS011;23275;48.914;12.566;2023-12-20T07:12:37;9.80;;;5.28;;
37409;SDS011;23275;48.914;12.566;2023-12-20T07:15:02;8.18;;;5.80;;
37409;SDS011;23275;48.914;12.566;2023-12-20T07:17:30;14.20;;;6.88;;
37409;SDS011;23275;48.914;12.566;2023-12-20T07:19:58;24.40;;;11.68;;
37409;SDS011;23275;48.914;12.566;2023-12-20T07:22:23;34.63;;;15.38;;
37409;SDS011;23275;48.914;12.566;2023-12-20T07:24:49;28.27;;;12.55;;
37409;SDS011;23275;48.914;12.566;2023-12-20T07:27:17;17.10;;;9.45;;
37409;SDS011;23275;48.914;12.566;2023-12-20T07:29:42;22.23;;;10.20;;
37409;SDS011;23275;48.914;12.566;2023-12-20T07:32:08;17.08;;;9.38;;
37409;SDS011;23275;48.914;12.566;2023-12-20T07:34:34;11.10;;;6.78;;
37409;SDS011;23275;48.914;12.566;2023-12-20T07:36:59;21.05;;;11.02;;
37409;SDS011;23275;48.914;12.566;2023-12-20T07:39:25;12.90;;;8.07;;
37409;SDS011;23275;48.914;12.566;2023-12-20T07:41:50;12.95;;;7.55;;
37409;SDS011;23275;48.914;12.566;2023-12-20T07:44:16;12.70;;;7.70;;
37409;SDS011;23275;48.914;12.566;2023-12-20T07:46:41;12.18;;;7.10;;
37409;SDS011;23275;48.914;12.566;2023-12-20T07:49:07;15.95;;;8.75;;
37409;SDS011;23275;48.914;12.566;2023-12-20T07:51:33;9.75;;;5.93;;
37409;SDS011;23275;48.914;12.566;2023-12-20T07:53:59;9.50;;;5.53;;
37409;SDS011;23275;48.914;12.566;2023-12-20T07:56:24;12.57;;;6.10;;
37409;SDS011;23275;48.914;12.566;2023-12-20T07:58:50;10.23;;;6.60;;
37409;SDS011;23275;48.914;12.566;2023-12-20T08:01:16;15.77;;;10.55;;
37409;SDS011;23275;48.914;12.566;2023-12-20T08:03:43;20.98;;;13.00;;
37409;SDS011;23275;48.914;12.566;2023-12-20T08:06:08;12.13;;;7.97;;
37409;SDS011;23275;48.914;12.566;2023-12-20T08:08:34;19.05;;;10.50;;
37409;SDS011;23275;48.914;12.566;2023-12-20T08:10:59;17.83;;;11.27;;
37409;SDS011;23275;48.914;12.566;2023-12-20T08:13:26;16.98;;;10.82;;
37409;SDS011;23275;48.914;12.566;2023-12-20T08:15:52;18.55;;;11.13;;
37409;SDS011;23275;48.914;12.566;2023-12-20T08:18:18;11.65;;;8.05;;
37409;SDS011;23275;48.914;12.566;2023-12-20T08:20:44;10.60;;;7.00;;
37409;SDS011;23275;48.914;12.566;2023-12-20T08:23:09;13.07;;;8.23;;
37409;SDS011;23275;48.914;12.566;2023-12-20T08:25:35;9.63;;;6.38;;
37409;SDS011;23275;48.914;12.566;2023-12-20T08:28:01;10.90;;;6.18;;
37409;SDS011;23275;48.914;12.566;2023-12-20T08:30:27;8.77;;;5.90;;
37409;SDS011;23275;48.914;12.566;2023-12-20T08:32:52;15.43;;;8.57;;
37409;SDS011;23275;48.914;12.566;2023-12-20T08:35:18;11.82;;;6.78;;
37409;SDS011;23275;48.914;12.566;2023-12-20T08:37:44;8.20;;;5.30;;
37409;SDS011;23275;48.914;12.566;2023-12-20T08:40:10;8.70;;;5.15;;
37409;SDS011;23275;48.914;12.566;2023-12-20T08:42:36;7.07;;;4.70;;
37409;SDS011;23275;48.914;12.566;2023-12-20T08:45:01;6.40;;;4.25;;
37409;SDS011;23275;48.914;12.566;2023-12-20T08:47:29;6.43;;;3.65;;
37409;SDS011;23275;48.914;12.566;2023-12-20T08:49:54;7.05;;;4.25;;
37409;SDS011;23275;48.914;12.566;2023-12-20T08:52:22;7.72;;;4.30;;
37409;SDS011;23275;48.914;12.566;2023-12-20T08:54:48;5.72;;;3.38;;
37409;SDS011;23275;48.914;12.566;2023-12-20T08:57:16;5.40;;;3.40;;
37409;SDS011;23275;48.914;12.566;2023-12-20T08:59:43;7.75;;;4.22;;
37409;SDS011;23275;48.914;12.566;2023-12-20T09:02:09;5.40;;;3.53;;
37409;SDS011;23275;48.914;12.566;2023-12-20T09:04:34;5.90;;;3.08;;
37409;SDS011;23275;48.914;12.566;2023-12-20T09:07:00;5.28;;;2.70;;
37409;SDS011;23275;48.914;12.566;2023-12-20T09:09:26;3.88;;;2.28;;
37409;SDS011;23275;48.914;12.566;2023-12-20T09:11:52;9.00;;;4.32;;
37409;SDS011;23275;48.914;12.566;2023-12-20T09:14:17;4.72;;;2.17;;
37409;SDS011;23275;48.914;12.566;2023-12-20T09:16:43;4.03;;;2.05;;
37409;SDS011;23275;48.914;12.566;2023-12-20T09:19:08;15.07;;;6.22;;
37409;SDS011;23275;48.914;12.566;2023-12-20T09:21:34;9.82;;;4.47;;
37409;SDS011;23275;48.914;12.566;2023-12-20T09:23:59;14.50;;;7.30;;
37409;SDS011;23275;48.914;12.566;2023-12-20T09:26:25;8.82;;;4.10;;
37409;SDS011;23275;48.914;12.566;2023-12-20T09:28:50;6.03;;;2.35;;
37409;SDS011;23275;48.914;12.566;2023-12-20T09:31:16;7.25;;;2.75;;
37409;SDS011;23275;48.914;12.566;2023-12-20T09:33:42;11.15;;;5.07;;
37409;SDS011;23275;48.914;12.566;2023-12-20T09:36:07;6.28;;;3.22;;
37409;SDS011;23275;48.914;12.566;2023-12-20T09:38:33;9.40;;;4.82;;
37409;SDS011;23275;48.914;12.566;2023-12-20T09:40:59;8.10;;;3.38;;
37409;SDS011;23275;48.914;12.566;2023-12-20T09:43:27;7.10;;;3.55;;
37409;SDS011;23275;48.914;12.566;2023-12-20T09:45:54;7.88;;;3.80;;
37409;SDS011;23275;48.914;12.566;2023-12-20T09:48:27;6.47;;;2.88;;
37409;SDS011;23275;48.914;12.566;2023-12-20T09:50:53;7.57;;;3.47;;
37409;SDS011;23275;48.914;12.566;2023-12-20T09:53:20;5.40;;;2.75;;
37409;SDS011;23275;48.914;12.566;2023-12-20T09:55:48;3.20;;;1.50;;
37409;SDS011;23275;48.914;12.566;2023-12-20T09:58:14;5.07;;;2.65;;
37409;SDS011;23275;48.914;12.566;2023-12-20T10:00:40;2.38;;;1.17;;
37409;SDS011;23275;48.914;12.566;2023-12-20T10:03:06;3.72;;;1.50;;
37409;SDS011;23275;48.914;12.566;2023-12-20T10:05:32;5.80;;;2.50;;
37409;SDS011;23275;48.914;12.566;2023-12-20T10:07:59;3.00;;;1.70;;
37409;SDS011;23275;48.914;12.566;2023-12-20T10:10:25;3.67;;;1.40;;
37409;SDS011;23275;48.914;12.566;2023-12-20T10:13:07;9.02;;;4.32;;
37409;SDS011;23275;48.914;12.566;2023-12-20T10:15:35;3.95;;;1.83;;
37409;SDS011;23275;48.914;12.566;2023-12-20T10:18:01;4.80;;;1.73;;
37409;SDS011;23275;48.914;12.566;2023-12-20T10:20:28;2.13;;;1.10;;
37409;SDS011;23275;48.914;12.566;2023-12-20T10:22:54;3.63;;;1.80;;
37409;SDS011;23275;48.914;12.566;2023-12-20T10:25:20;4.78;;;1.38;;
37409;SDS011;23275;48.914;12.566;2023-12-20T10:27:46;2.33;;;1.20;;
37409;SDS011;23275;48.914;12.566;2023-12-20T10:30:13;1.88;;;0.90;;
37409;SDS011;23275;48.914;12.566;2023-12-20T10:32:39;2.03;;;0.90;;
37409;SDS011;23275;48.914;12.566;2023-12-20T10:35:05;3.70;;;1.00;;
37409;SDS011;23275;48.914;12.566;2023-12-20T10:37:35;1.55;;;0.85;;
37409;SDS011;23275;48.914;12.566;2023-12-20T10:40:02;2.20;;;1.23;;
37409;SDS011;23275;48.914;12.566;2023-12-20T10:42:30;4.30;;;1.50;;
37409;SDS011;23275;48.914;12.566;2023-12-20T10:44:59;2.60;;;1.30;;
37409;SDS011;23275;48.914;12.566;2023-12-20T10:47:25;4.03;;;2.05;;
37409;SDS011;23275;48.914;12.566;2023-12-20T10:49:51;3.60;;;1.52;;
37409;SDS011;23275;48.914;12.566;2023-12-20T10:52:18;4.68;;;2.10;;
37409;SDS011;23275;48.914;12.566;2023-12-20T10:54:45;4.45;;;1.63;;
37409;SDS011;23275;48.914;12.566;2023-12-20T10:57:11;3.05;;;1.80;;
37409;SDS011;23275;48.914;12.566;2023-12-20T10:59:37;3.72;;;1.20;;
37409;SDS011;23275;48.914;12.566;2023-12-20T11:02:03;2.03;;;1.10;;
37409;SDS011;23275;48.914;12.566;2023-12-20T11:04:50;2.10;;;0.95;;
37409;SDS011;23275;48.914;12.566;2023-12-20T11:07:37;1.60;;;0.90;;
37409;SDS011;23275;48.914;12.566;2023-12-20T11:10:19;2.55;;;0.95;;
37409;SDS011;23275;48.914;12.566;2023-12-20T11:13:03;1.92;;;1.00;;
37409;SDS011;23275;48.914;12.566;2023-12-20T11:15:36;2.10;;;1.10;;
37409;SDS011;23275;48.914;12.566;2023-12-20T11:18:02;2.28;;;1.15;;
37409;SDS011;23275;48.914;12.566;2023-12-20T11:20:37;3.03;;;1.42;;
37409;SDS011;23275;48.914;12.566;2023-12-20T11:23:04;2.90;;;1.50;;
37409;SDS011;23275;48.914;12.566;2023-12-20T11:25:30;1.88;;;1.00;;
37409;SDS011;23275;48.914;12.566;2023-12-20T11:28:12;1.40;;;0.90;;
37409;SDS011;23275;48.914;12.566;2023-12-20T11:30:42;2.90;;;1.00;;
37409;SDS011;23275;48.914;12.566;2023-12-20T11:33:08;1.88;;;0.82;;
37409;SDS011;23275;48.914;12.566;2023-12-20T11:35:34;1.58;;;0.80;;
37409;SDS011;23275;48.914;12.566;2023-12-20T11:38:01;2.85;;;0.95;;
37409;SDS011;23275;48.914;12.566;2023-12-20T11:40:27;1.17;;;0.63;;
37409;SDS011;23275;48.914;12.566;2023-12-20T11:42:52;1.60;;;0.65;;
37409;SDS011;23275;48.914;12.566;2023-12-20T11:45:23;1.77;;;0.40;;
37409;SDS011;23275;48.914;12.566;2023-12-20T11:47:51;1.10;;;0.55;;
37409;SDS011;23275;48.914;12.566;2023-12-20T11:50:19;1.30;;;0.43;;
37409;SDS011;23275;48.914;12.566;2023-12-20T11:52:45;1.20;;;0.80;;
37409;SDS011;23275;48.914;12.566;2023-12-20T11:55:11;1.05;;;0.60;;
37409;SDS011;23275;48.914;12.566;2023-12-20T11:57:37;1.10;;;0.60;;
37409;SDS011;23275;48.914;12.566;2023-12-20T12:00:03;4.40;;;0.70;;
37409;SDS011;23275;48.914;12.566;2023-12-20T12:02:30;1.50;;;0.60;;
37409;SDS011;23275;48.914;12.566;2023-12-20T12:04:55;2.10;;;0.80;;
37409;SDS011;23275;48.914;12.566;2023-12-20T12:07:21;2.22;;;1.00;;
37409;SDS011;23275;48.914;12.566;2023-12-20T12:09:47;2.10;;;0.73;;
37409;SDS011;23275;48.914;12.566;2023-12-20T12:12:13;1.98;;;1.08;;
37409;SDS011;23275;48.914;12.566;2023-12-20T12:14:39;4.57;;;1.50;;
37409;SDS011;23275;48.914;12.566;2023-12-20T12:17:09;2.33;;;0.85;;
37409;SDS011;23275;48.914;12.566;2023-12-20T12:19:39;2.70;;;0.70;;
37409;SDS011;23275;48.914;12.566;2023-12-20T12:24:33;4.47;;;0.98;;
37409;SDS011;23275;48.914;12.566;2023-12-20T12:26:59;3.25;;;1.20;;
37409;SDS011;23275;48.914;12.566;2023-12-20T12:29:24;2.88;;;1.17;;
37409;SDS011;23275;48.914;12.566;2023-12-20T12:31:50;6.07;;;1.67;;
37409;SDS011;23275;48.914;12.566;2023-12-20T12:34:17;4.13;;;1.75;;
37409;SDS011;23275;48.914;12.566;2023-12-20T12:36:43;5.95;;;1.30;;
37409;SDS011;23275;48.914;12.566;2023-12-20T12:39:12;4.43;;;1.08;;
37409;SDS011;23275;48.914;12.566;2023-12-20T12:41:37;4.88;;;0.70;;
37409;SDS011;23275;48.914;12.566;2023-12-20T12:44:03;1.27;;;0.73;;
37409;SDS011;23275;48.914;12.566;2023-12-20T12:46:28;3.53;;;0.88;;
37409;SDS011;23275;48.914;12.566;2023-12-20T12:48:54;2.47;;;0.60;;
37409;SDS011;23275;48.914;12.566;2023-12-20T12:51:20;4.80;;;0.73;;
37409;SDS011;23275;48.914;12.566;2023-12-20T12:53:46;7.63;;;1.80;;
37409;SDS011;23275;48.914;12.566;2023-12-20T12:56:12;6.03;;;0.88;;
37409;SDS011;23275;48.914;12.566;2023-12-20T12:58:38;2.83;;;0.70;;
37409;SDS011;23275;48.914;12.566;2023-12-20T13:01:04;2.05;;;0.75;;
37409;SDS011;23275;48.914;12.566;2023-12-20T13:03:31;4.18;;;0.82;;
37409;SDS011;23275;48.914;12.566;2023-12-20T13:05:59;3.42;;;1.25;;
37409;SDS011;23275;48.914;12.566;2023-12-20T13:08:25;2.63;;;1.02;;
37409;SDS011;23275;48.914;12.566;2023-12-20T13:10:50;6.20;;;1.25;;
37409;SDS011;23275;48.914;12.566;2023-12-20T13:13:16;3.95;;;1.00;;
37409;SDS011;23275;48.914;12.566;2023-12-20T13:15:42;5.50;;;1.60;;
37409;SDS011;23275;48.914;12.566;2023-12-20T13:18:13;9.88;;;4.00;;
37409;SDS011;23275;48.914;12.566;2023-12-20T13:20:38;4.32;;;1.52;;
37409;SDS011;23275;48.914;12.566;2023-12-20T13:23:07;5.25;;;2.17;;
37409;SDS011;23275;48.914;12.566;2023-12-20T13:25:33;3.88;;;0.60;;
37409;SDS011;23275;48.914;12.566;2023-12-20T13:27:58;2.88;;;0.75;;
37409;SDS011;23275;48.914;12.566;2023-12-20T13:30:24;4.63;;;1.40;;
37409;SDS011;23275;48.914;12.566;2023-12-20T13:32:50;4.25;;;1.00;;
37409;SDS011;23275;48.914;12.566;2023-12-20T13:35:15;3.22;;;0.80;;
37409;SDS011;23275;48.914;12.566;2023-12-20T13:37:41;1.58;;;0.80;;
37409;SDS011;23275;48.914;12.566;2023-12-20T13:40:07;2.70;;;0.90;;
37409;SDS011;23275;48.914;12.566;2023-12-20T13:42:33;3.58;;;0.82;;
37409;SDS011;23275;48.914;12.566;2023-12-20T13:44:58;4.95;;;1.50;;
37409;SDS011;23275;48.914;12.566;2023-12-20T13:47:24;5.45;;;2.22;;
37409;SDS011;23275;48.914;12.566;2023-12-20T13:49:49;4.63;;;0.80;;
37409;SDS011;23275;48.914;12.566;2023-12-20T13:52:15;6.07;;;2.03;;
37409;SDS011;23275;48.914;12.566;2023-12-20T13:54:41;6.05;;;1.33;;
37409;SDS011;23275;48.914;12.566;2023-12-20T13:57:06;3.25;;;0.73;;
37409;SDS011;23275;48.914;12.566;2023-12-20T13:59:32;3.97;;;1.48;;
37409;SDS011;23275;48.914;12.566;2023-12-20T14:01:57;6.03;;;1.23;;
37409;SDS011;23275;48.914;12.566;2023-12-20T14:04:23;6.07;;;0.60;;
37409;SDS011;23275;48.914;12.566;2023-12-20T14:06:48;4.82;;;1.50;;
37409;SDS011;23275;48.914;12.566;2023-12-20T14:09:14;2.97;;;1.02;;
37409;SDS011;23275;48.914;12.566;2023-12-20T14:11:40;6.97;;;2.47;;
37409;SDS011;23275;48.914;12.566;2023-12-20T14:14:06;4.50;;;2.03;;
37409;SDS011;23275;48.914;12.566;2023-12-20T14:16:33;5.10;;;1.60;;
37409;SDS011;23275;48.914;12.566;2023-12-20T14:18:59;6.10;;;2.33;;
37409;SDS011;23275;48.914;12.566;2023-12-20T14:21:25;10.13;;;1.58;;
37409;SDS011;23275;48.914;12.566;2023-12-20T14:23:51;3.33;;;1.20;;